Healy, AK

5:29 AM AKDT on October 30, 2014 (GMT -0800)
Denali Park | Change Station
CLOSE
Current Station
Airport
Location: Denali Park,
Elevation: 1719 ft
Nearby Weather Stations

Elev 1719 ft 63.73 °N, 148.91 °W | Updated 13 minutes ago

Mostly Cloudy
Mostly Cloudy
7 °F
Feels Like 7 °F
N
0
Wind Variable Wind from North

Today
High -- | Low -- °F
--% Chance of Precip.
Yesterday
High -- | Low -- °F
Precip. -- in
9:30 AM 5:44 PM
Waxing Crescent, 44% visible
Pressure 29.66 in
Visibility 10.0 miles
Clouds Mostly Cloudy 7000 ft
Dew Point 3 °F
Humidity 85%
Rainfall 0.00 in
Snow Depth Not available.
UV 0 out of 12
Pollen Not available.
Air Quality Not available.
Flu Activity Not available.
METAR PAIN 301316Z AUTO 00000KT 10SM BKN070 M14/M16 A2966 RMK AO1

More Conditions Fewer Conditions

Pressure 29.66 in
Visibility 10.0 miles
Clouds Mostly Cloudy 7000 ft
Dew Point 3 °F
Humidity 85%
Rainfall 0.00 in
Snow Depth Not available.
UV 0 out of 12
Pollen Not available.
Air Quality Not available.
Flu Activity Not available.
METAR PAIN 301316Z AUTO 00000KT 10SM BKN070 M14/M16 A2966 RMK AO1

More Conditions Fewer Conditions

10-Day Weather Forecast

Almanac

Astronomy

Oct. 30, 2014 Rise Set
Actual Time
Civil Twilight
Nautical Twilight
Astronomical Twilight
Moon
Length of Visible Light
Length of Day
Tomorrow will be .
, % of the Moon is Illuminated

Today's Extremes

State Highs State Lows

Community

WunderPhotos

Upload Photos

1,766,358 photos uploaded!

WunderBlogs® & News

Nearby

Air Quality

  Air Quality AQ Index Pollutant
Not available.

Snow Depth

Station Depth Elevation

Earthquake Activity

City Distance Mag. Time & Date
Minimum magnitude displayed is 2.5.

Coastal Water Temperatures

Place Temperature

Nearby Weather Stations